Time;durP1;ratioP1;P1;durP2;ratioP2;P2;SDS_P1;SDS_P2;PMS_P1;PMS_P2;Temp;Humidity;BMP_temperature;BMP_pressure;BME280_temperature;BME280_humidity;BME280_pressure;Samples;Min_cycle;Max_cycle;Signal;HPM_P1;HPM_P2
2020/12/30 00:02:15;;;;;;;4.30;3.90;;;4.20;1.00;;;;;;5053216;28;20178;-59
2020/12/30 00:04:41;;;;;;;4.20;3.30;;;4.30;1.00;;;;;;5054010;28;20175;-60
2020/12/30 00:07:07;;;;;;;4.47;3.47;;;;;;;;;;5034003;28;20176;-60
2020/12/30 00:09:32;;;;;;;3.80;3.40;;;4.40;1.00;;;;;;5035308;28;20187;-60
2020/12/30 00:11:58;;;;;;;4.20;3.57;;;4.30;1.00;;;;;;5045054;28;20434;-60
2020/12/30 00:14:23;;;;;;;4.17;3.20;;;4.40;1.00;;;;;;5057565;28;20195;-60
2020/12/30 00:16:49;;;;;;;3.50;3.20;;;4.50;1.00;;;;;;5057537;28;20518;-59
2020/12/30 00:19:15;;;;;;;4.03;3.67;;;4.60;1.00;;;;;;5057525;28;20183;-60
2020/12/30 00:21:40;;;;;;;4.40;3.87;;;4.70;1.00;;;;;;5056826;28;20183;-59
2020/12/30 00:24:06;;;;;;;2.77;2.57;;;4.60;1.00;;;;;;5057749;28;20186;-59
2020/12/30 00:26:32;;;;;;;3.67;3.33;;;4.60;1.00;;;;;;5057143;28;20190;-60
2020/12/30 00:28:57;;;;;;;4.03;3.07;;;4.60;1.00;;;;;;5057442;28;20203;-60
2020/12/30 00:31:23;;;;;;;3.50;3.20;;;4.80;1.00;;;;;;5057121;28;20621;-60
2020/12/30 00:33:48;;;;;;;3.47;2.77;;;4.80;1.00;;;;;;5069801;28;20240;-60
2020/12/30 00:36:14;;;;;;;3.87;3.10;;;4.80;1.00;;;;;;5066290;28;20190;-60
2020/12/30 00:38:43;;;;;;;4.00;3.50;;;4.80;1.00;;;;;;5056979;28;20330;-60
2020/12/30 00:41:14;;;;;;;4.20;3.10;;;4.90;1.00;;;;;;5064215;28;20190;-60
2020/12/30 00:43:40;;;;;;;3.63;3.20;;;4.90;1.00;;;;;;5076488;28;20429;-60
2020/12/30 00:46:12;;;;;;;3.90;3.40;;;4.90;1.00;;;;;;5057232;28;20441;-60
2020/12/30 00:48:38;;;;;;;3.60;3.30;;;4.90;1.00;;;;;;5057266;28;20561;-60
2020/12/30 00:51:03;;;;;;;5.07;3.77;;;5.00;1.00;;;;;;5057403;28;20513;-60
2020/12/30 00:53:29;;;;;;;5.60;3.60;;;5.00;1.00;;;;;;5056781;28;20242;-60
2020/12/30 00:55:55;;;;;;;4.00;3.70;;;5.10;1.00;;;;;;5056985;28;20704;-60
2020/12/30 00:58:20;;;;;;;3.80;3.47;;;5.10;1.00;;;;;;5057161;28;20183;-60
2020/12/30 01:00:46;;;;;;;3.43;3.13;;;5.10;1.00;;;;;;5056983;28;20265;-60
2020/12/30 01:03:11;;;;;;;3.87;2.70;;;5.20;1.00;;;;;;5057067;28;20268;-59
2020/12/30 01:05:37;;;;;;;4.07;3.67;;;5.20;1.00;;;;;;5057068;28;20521;-59
2020/12/30 01:08:03;;;;;;;9.30;3.57;;;5.30;1.00;;;;;;5056734;28;20200;-59
2020/12/30 01:10:28;;;;;;;3.83;2.90;;;5.30;1.00;;;;;;5056819;28;20168;-59
2020/12/30 01:12:54;;;;;;;5.50;3.80;;;5.30;1.00;;;;;;5056843;28;20179;-59
2020/12/30 01:15:19;;;;;;;6.40;3.80;;;5.30;1.00;;;;;;5056338;28;20188;-59
2020/12/30 01:17:45;;;;;;;3.37;3.07;;;5.30;1.00;;;;;;5061717;28;20180;-63
2020/12/30 01:20:10;;;;;;;4.53;3.20;;;5.30;1.00;;;;;;5082846;28;20624;-60
2020/12/30 01:22:36;;;;;;;4.47;3.70;;;5.40;1.00;;;;;;5060813;28;20207;-60
2020/12/30 01:25:02;;;;;;;3.10;2.80;;;5.40;1.00;;;;;;5058662;28;20176;-60
2020/12/30 01:27:27;;;;;;;4.50;3.87;;;5.50;1.00;;;;;;5056940;28;20637;-60
2020/12/30 01:29:53;;;;;;;4.73;3.87;;;5.50;1.00;;;;;;5055690;28;20721;-61
2020/12/30 01:32:19;;;;;;;3.97;3.37;;;5.50;1.00;;;;;;5056501;28;20451;-61
2020/12/30 01:34:44;;;;;;;4.77;3.80;;;5.50;1.00;;;;;;5055528;28;20192;-60
2020/12/30 01:37:10;;;;;;;4.70;3.43;;;5.60;1.00;;;;;;5056223;28;20184;-60
2020/12/30 01:39:35;;;;;;;4.33;3.40;;;5.60;1.00;;;;;;5056238;28;20172;-60
2020/12/30 01:42:01;;;;;;;4.53;3.60;;;5.60;1.00;;;;;;5056378;28;20471;-60
2020/12/30 01:44:27;;;;;;;5.00;3.90;;;5.60;1.00;;;;;;5057423;28;20679;-60
2020/12/30 01:46:53;;;;;;;3.37;2.83;;;5.60;1.00;;;;;;5057438;28;20183;-60
2020/12/30 01:49:23;;;;;;;4.00;3.43;;;5.60;1.00;;;;;;5056353;28;20595;-59
2020/12/30 01:51:53;;;;;;;4.57;2.90;;;5.50;1.00;;;;;;5056273;28;20422;-59
2020/12/30 01:54:19;;;;;;;3.50;3.20;;;5.50;1.00;;;;;;5054902;28;20499;-59
2020/12/30 01:56:46;;;;;;;2.77;2.30;;;5.50;1.00;;;;;;5067855;28;20433;-59
2020/12/30 01:59:21;;;;;;;2.80;2.30;;;5.50;1.00;;;;;;5056253;28;20442;-59
2020/12/30 02:01:57;;;;;;;4.73;2.80;;;5.50;1.00;;;;;;5055720;28;20477;-60
2020/12/30 02:04:56;;;;;;;2.37;1.80;;;5.60;1.00;;;;;;5054908;28;20437;-59
2020/12/30 02:07:25;;;;;;;3.20;2.23;;;5.60;1.00;;;;;;5034932;28;20500;-60
2020/12/30 02:09:51;;;;;;;1.83;1.70;;;5.60;1.00;;;;;;5051502;28;20433;-60
2020/12/30 02:12:17;;;;;;;2.40;2.20;;;5.70;1.00;;;;;;5054876;28;20994;-59
2020/12/30 02:14:43;;;;;;;4.40;3.40;;;5.70;1.00;;;;;;5055772;28;20497;-59
2020/12/30 02:17:13;;;;;;;3.57;1.90;;;5.70;1.00;;;;;;5060416;28;20767;-59
2020/12/30 02:19:39;;;;;;;3.10;1.67;;;5.70;1.00;;;;;;5070537;28;20195;-59
2020/12/30 02:22:06;;;;;;;1.90;1.37;;;5.80;1.00;;;;;;5055229;28;20442;-59
2020/12/30 02:24:33;;;;;;;2.33;1.80;;;5.90;1.00;;;;;;5055121;28;20191;-59
2020/12/30 02:27:00;;;;;;;2.40;2.00;;;5.80;1.00;;;;;;5055018;28;20450;-59
2020/12/30 02:29:29;;;;;;;3.10;2.33;;;5.90;1.00;;;;;;5054847;28;20462;-60
2020/12/30 02:31:55;;;;;;;3.50;2.50;;;5.80;1.00;;;;;;5054381;28;20426;-59
2020/12/30 02:34:23;;;;;;;3.97;2.20;;;5.70;1.00;;;;;;5055256;28;20905;-60
2020/12/30 02:36:49;;;;;;;2.10;1.73;;;5.90;1.00;;;;;;5054986;28;20925;-59
2020/12/30 02:39:15;;;;;;;2.03;1.47;;;5.70;1.00;;;;;;5054039;28;21155;-59
2020/12/30 02:41:41;;;;;;;2.63;1.67;;;5.80;1.00;;;;;;5054604;28;20437;-59
2020/12/30 02:44:07;;;;;;;2.30;1.60;;;5.80;1.00;;;;;;5064042;28;20584;-61
2020/12/30 02:46:33;;;;;;;2.10;1.70;;;5.90;1.00;;;;;;5055643;28;20179;-60
2020/12/30 02:49:00;;;;;;;4.10;2.20;;;5.90;1.00;;;;;;5054602;28;20481;-60
2020/12/30 02:51:25;;;;;;;3.53;1.23;;;5.80;1.00;;;;;;5054616;28;20430;-60
2020/12/30 02:53:52;;;;;;;2.13;1.70;;;5.80;1.00;;;;;;5053971;28;20541;-59
2020/12/30 02:56:18;;;;;;;1.97;1.30;;;5.80;1.00;;;;;;5053697;28;20191;-60
2020/12/30 02:58:47;;;;;;;1.23;1.13;;;5.80;1.00;;;;;;5054822;28;20469;-60
2020/12/30 03:01:14;;;;;;;2.30;1.40;;;5.80;1.00;;;;;;5055136;28;20422;-60
2020/12/30 03:03:41;;;;;;;2.00;1.50;;;5.70;1.00;;;;;;5056652;28;20472;-60
2020/12/30 03:06:07;;;;;;;2.03;1.00;;;5.60;1.00;;;;;;5054624;28;20425;-60
2020/12/30 03:08:33;;;;;;;1.60;1.40;;;5.50;1.00;;;;;;5054578;28;20461;-61
2020/12/30 03:11:00;;;;;;;2.90;1.30;;;5.50;1.00;;;;;;5054573;28;20411;-59
2020/12/30 03:13:26;;;;;;;4.43;1.37;;;5.50;1.00;;;;;;5062115;28;20636;-60
2020/12/30 03:15:52;;;;;;;2.50;1.37;;;5.60;1.00;;;;;;5066397;28;20434;-60
2020/12/30 03:18:18;;;;;;;1.67;1.30;;;5.60;1.00;;;;;;5054765;28;20441;-59
2020/12/30 03:20:43;;;;;;;2.90;1.37;;;5.50;1.00;;;;;;5054355;28;20175;-59
2020/12/30 03:23:09;;;;;;;1.33;1.20;;;5.20;1.00;;;;;;5054673;28;20517;-59
2020/12/30 03:25:35;;;;;;;2.17;1.30;;;5.50;1.00;;;;;;5053878;28;20632;-60
2020/12/30 03:28:02;;;;;;;1.50;1.40;;;5.50;1.00;;;;;;5054219;28;20286;-60
2020/12/30 03:30:28;;;;;;;1.80;1.07;;;5.60;1.00;;;;;;5052956;28;20833;-60
2020/12/30 03:32:55;;;;;;;2.10;1.10;;;5.70;1.00;;;;;;5054294;28;20423;-60
2020/12/30 03:35:24;;;;;;;1.53;1.13;;;5.60;1.00;;;;;;5053980;28;20479;-60
2020/12/30 03:37:53;;;;;;;1.50;1.20;;;5.60;1.00;;;;;;5054854;28;20430;-59
2020/12/30 03:40:19;;;;;;;0.90;0.90;;;5.60;1.00;;;;;;5067697;28;20486;-60
2020/12/30 03:42:46;;;;;;;2.40;1.10;;;5.50;1.00;;;;;;5053096;28;20490;-60
2020/12/30 03:45:11;;;;;;;2.03;1.57;;;5.60;1.00;;;;;;5053987;28;20422;-60
2020/12/30 03:47:37;;;;;;;2.40;1.10;;;5.60;1.00;;;;;;5051881;28;20477;-59
2020/12/30 03:50:04;;;;;;;1.60;1.00;;;5.60;1.00;;;;;;5053918;28;20502;-60
2020/12/30 03:52:30;;;;;;;2.43;1.27;;;5.70;1.00;;;;;;5054128;28;20272;-59
2020/12/30 03:54:55;;;;;;;2.30;0.90;;;5.70;1.00;;;;;;5052803;28;20796;-59
2020/12/30 03:57:21;;;;;;;2.03;0.70;;;5.80;1.00;;;;;;5052772;28;20176;-59
2020/12/30 03:59:47;;;;;;;2.47;1.00;;;5.70;1.00;;;;;;5054168;28;20231;-59
2020/12/30 04:02:12;;;;;;;2.13;1.13;;;5.60;1.00;;;;;;5054043;28;20267;-59
2020/12/30 04:04:38;;;;;;;0.80;0.80;;;5.50;1.00;;;;;;5053423;28;20280;-59
2020/12/30 04:07:04;;;;;;;1.17;1.00;;;5.50;1.00;;;;;;5053070;28;20171;-60
2020/12/30 04:09:29;;;;;;;2.60;0.90;;;5.40;1.00;;;;;;5055151;28;20717;-60
2020/12/30 04:11:55;;;;;;;1.57;1.13;;;5.30;1.00;;;;;;5053567;28;20258;-60
2020/12/30 04:14:20;;;;;;;2.23;1.10;;;5.20;1.00;;;;;;5054020;28;20602;-60
2020/12/30 04:16:46;;;;;;;2.60;1.40;;;5.30;1.00;;;;;;5053292;28;20174;-60
2020/12/30 04:19:12;;;;;;;0.80;0.60;;;5.20;1.00;;;;;;5052631;28;20178;-59
2020/12/30 04:21:37;;;;;;;2.60;1.03;;;5.20;1.00;;;;;;5053652;28;20585;-59
2020/12/30 04:24:05;;;;;;;1.73;1.10;;;5.20;1.00;;;;;;5068832;28;20187;-59
2020/12/30 04:26:30;;;;;;;1.40;1.03;;;5.10;1.00;;;;;;5053562;28;20560;-59
2020/12/30 04:28:56;;;;;;;1.33;1.23;;;5.00;1.00;;;;;;5053747;28;20464;-59
2020/12/30 04:31:22;;;;;;;1.40;1.00;;;4.90;1.00;;;;;;5052926;28;20169;-59
2020/12/30 04:33:47;;;;;;;1.50;0.90;;;4.70;1.00;;;;;;5052619;28;20179;-59
2020/12/30 04:36:13;;;;;;;2.43;1.10;;;4.60;1.00;;;;;;5052905;28;20195;-60
2020/12/30 04:38:40;;;;;;;1.87;1.30;;;4.50;1.00;;;;;;5053764;28;20486;-59
2020/12/30 04:41:10;;;;;;;3.70;1.30;;;4.60;1.00;;;;;;5054265;28;20768;-59
2020/12/30 04:43:37;;;;;;;1.60;1.50;;;4.50;1.00;;;;;;5052705;28;20522;-60
2020/12/30 04:46:04;;;;;;;3.53;1.80;;;4.50;1.00;;;;;;5059051;28;20892;-59
2020/12/30 04:48:33;;;;;;;2.73;1.60;;;4.40;1.00;;;;;;5064260;28;20535;-60
2020/12/30 04:51:00;;;;;;;2.13;1.27;;;4.30;1.00;;;;;;5053865;28;20767;-59
2020/12/30 04:53:27;;;;;;;2.60;1.23;;;4.30;1.00;;;;;;5054031;28;20448;-59
2020/12/30 04:55:59;;;;;;;1.97;1.30;;;4.30;1.00;;;;;;5061039;28;20429;-59
2020/12/30 04:58:28;;;;;;;1.80;1.23;;;4.30;1.00;;;;;;5077527;28;20406;-59
2020/12/30 05:00:54;;;;;;;2.50;1.10;;;4.30;1.00;;;;;;5066608;28;20429;-59
2020/12/30 05:03:29;;;;;;;2.20;1.40;;;4.20;1.00;;;;;;5056464;28;20805;-61
2020/12/30 05:05:59;;;;;;;3.33;2.73;;;4.20;1.00;;;;;;5056766;28;20427;-60
2020/12/30 05:08:25;;;;;;;5.93;3.70;;;4.10;1.00;;;;;;5057104;28;20457;-59
2020/12/30 05:10:52;;;;;;;4.00;2.50;;;4.10;1.00;;;;;;5056060;28;20422;-59
2020/12/30 05:13:19;;;;;;;2.30;1.57;;;4.00;1.00;;;;;;5056089;28;20472;-60
2020/12/30 05:15:45;;;;;;;1.50;1.33;;;4.00;1.00;;;;;;5063559;28;20435;-59
2020/12/30 05:18:10;;;;;;;1.60;1.50;;;3.90;1.00;;;;;;5055762;28;20440;-60
2020/12/30 05:20:36;;;;;;;1.90;1.40;;;3.90;1.00;;;;;;5056512;28;20426;-58
2020/12/30 05:23:06;;;;;;;3.27;1.40;;;3.90;1.00;;;;;;5056675;28;20257;-58
2020/12/30 05:25:40;;;;;;;4.40;1.60;;;3.90;1.00;;;;;;5056220;28;20180;-58
2020/12/30 05:28:08;;;;;;;3.80;1.60;;;3.90;1.00;;;;;;5056534;28;20537;-58
2020/12/30 05:30:36;;;;;;;4.93;2.07;;;4.00;1.00;;;;;;5056522;28;20721;-58
2020/12/30 05:33:01;;;;;;;4.80;1.80;;;4.10;1.00;;;;;;5056480;28;20420;-59
2020/12/30 05:35:27;;;;;;;2.93;2.07;;;3.90;1.00;;;;;;5055598;28;20432;-60
2020/12/30 05:37:54;;;;;;;4.17;2.10;;;3.80;1.00;;;;;;5056754;28;20212;-59
2020/12/30 05:40:20;;;;;;;5.20;2.47;;;3.80;1.00;;;;;;5054964;28;20524;-59
2020/12/30 05:42:47;;;;;;;3.70;2.07;;;3.70;1.00;;;;;;5055388;28;20437;-59
2020/12/30 05:45:18;;;;;;;2.10;1.90;;;3.80;1.00;;;;;;5056054;28;20436;-60
2020/12/30 05:47:44;;;;;;;3.43;1.90;;;3.90;1.00;;;;;;5055055;28;20524;-59
2020/12/30 05:50:12;;;;;;;4.10;2.20;;;3.90;1.00;;;;;;5056190;28;20429;-59
2020/12/30 05:52:39;;;;;;;1.87;1.60;;;3.90;1.00;;;;;;5056107;28;20563;-60
2020/12/30 05:55:08;;;;;;;1.77;1.67;;;3.80;1.00;;;;;;5055994;28;20419;-59
2020/12/30 05:57:35;;;;;;;1.40;1.30;;;3.90;1.00;;;;;;5061612;28;20442;-59
2020/12/30 06:00:08;;;;;;;2.60;1.80;;;3.80;1.00;;;;;;5055892;28;20412;-59
2020/12/30 06:02:34;;;;;;;2.40;1.90;;;3.90;1.00;;;;;;5054301;28;20755;-61
2020/12/30 06:05:19;;;;;;;2.40;1.77;;;3.80;1.00;;;;;;5056846;28;20439;-61
2020/12/30 06:07:49;;;;;;;3.67;2.40;;;3.80;1.00;;;;;;5055790;28;20772;-60
2020/12/30 06:10:20;;;;;;;2.87;1.70;;;3.80;1.00;;;;;;5055703;28;20880;-60
2020/12/30 06:12:58;;;;;;;2.53;2.00;;;3.80;1.00;;;;;;5063518;28;20430;-61
2020/12/30 06:15:25;;;;;;;2.23;1.10;;;3.70;1.00;;;;;;5074654;28;20805;-61
2020/12/30 06:17:51;;;;;;;3.70;1.93;;;3.60;1.00;;;;;;5072206;28;20804;-61
2020/12/30 06:20:22;;;;;;;3.03;1.40;;;3.70;1.00;;;;;;5062879;28;20818;-60
2020/12/30 06:22:56;;;;;;;3.27;2.40;;;3.80;1.00;;;;;;5055470;28;20169;-60
2020/12/30 06:25:26;;;;;;;4.00;1.93;;;3.80;1.00;;;;;;5055024;28;20460;-60
2020/12/30 06:27:53;;;;;;;1.60;1.30;;;3.80;1.00;;;;;;5054597;28;20780;-59
2020/12/30 06:30:20;;;;;;;3.90;1.60;;;3.70;1.00;;;;;;5054856;28;20429;-58
2020/12/30 06:32:46;;;;;;;1.93;1.73;;;3.70;1.00;;;;;;5055095;28;20432;-60
2020/12/30 06:35:11;;;;;;;3.90;2.50;;;3.70;1.00;;;;;;5054917;28;20425;-59
2020/12/30 06:37:39;;;;;;;3.60;1.80;;;3.90;1.00;;;;;;5067958;28;20599;-59
2020/12/30 06:40:18;;;;;;;3.07;1.80;;;4.00;1.00;;;;;;5075134;28;20194;-63
2020/12/30 06:42:46;;;;;;;4.33;2.30;;;4.00;1.00;;;;;;5075456;28;20405;-60
2020/12/30 06:45:32;;;;;;;3.17;1.90;;;4.00;1.00;;;;;;5075041;28;20720;-59
2020/12/30 06:48:00;;;;;;;2.97;1.93;;;3.90;1.00;;;;;;5074657;28;20556;-60
2020/12/30 06:50:26;;;;;;;3.80;2.63;;;4.00;1.00;;;;;;5055407;28;20429;-58
2020/12/30 06:52:52;;;;;;;2.53;2.20;;;4.00;1.00;;;;;;5054892;28;20500;-59
2020/12/30 06:55:38;;;;;;;4.27;2.00;;;4.00;1.00;;;;;;5054789;28;20902;-60
2020/12/30 06:58:03;;;;;;;5.93;2.50;;;4.00;1.00;;;;;;5053523;28;20521;-59
2020/12/30 07:00:33;;;;;;;3.90;2.40;;;4.00;1.00;;;;;;5053779;28;20421;-59
2020/12/30 07:03:14;;;;;;;5.20;2.23;;;4.10;1.00;;;;;;5053534;28;20273;-60
2020/12/30 07:05:40;;;;;;;3.80;2.57;;;4.00;1.00;;;;;;5054775;28;20445;-60
2020/12/30 07:08:06;;;;;;;4.13;2.17;;;4.00;1.00;;;;;;5054130;28;20458;-60
2020/12/30 07:10:38;;;;;;;4.33;3.43;;;4.00;1.00;;;;;;5054370;28;20469;-59
2020/12/30 07:13:04;;;;;;;16.87;8.07;;;4.00;1.00;;;;;;5054568;28;20430;-61
2020/12/30 07:15:30;;;;;;;3.67;3.03;;;4.00;1.00;;;;;;5061518;28;20447;-59
2020/12/30 07:17:55;;;;;;;2.70;2.50;;;4.00;1.00;;;;;;5073047;28;20178;-60
2020/12/30 07:20:25;;;;;;;4.90;2.87;;;4.10;1.00;;;;;;5074474;28;20185;-60
2020/12/30 07:22:50;;;;;;;4.90;3.13;;;4.20;1.00;;;;;;5074321;28;20672;-59
2020/12/30 07:25:21;;;;;;;6.33;3.77;;;4.10;1.00;;;;;;5055876;28;20548;-60
2020/12/30 07:27:46;;;;;;;3.80;3.37;;;4.20;1.00;;;;;;5052980;28;20291;-60
2020/12/30 07:30:12;;;;;;;4.43;3.30;;;4.10;1.00;;;;;;5056506;28;20578;-60
2020/12/30 07:32:38;;;;;;;5.10;3.23;;;4.10;1.00;;;;;;5054549;28;20321;-59
2020/12/30 07:35:07;;;;;;;5.67;3.70;;;4.10;1.00;;;;;;5053017;28;20168;-60
2020/12/30 07:37:33;;;;;;;4.40;3.30;;;4.10;1.00;;;;;;5053210;28;20228;-60
2020/12/30 07:39:59;;;;;;;8.77;4.10;;;4.10;1.00;;;;;;5054467;28;20441;-60
2020/12/30 07:42:24;;;;;;;4.70;4.10;;;4.10;1.00;;;;;;5074259;28;20424;-58
2020/12/30 07:44:52;;;;;;;9.10;3.70;;;4.20;1.00;;;;;;5063888;28;20176;-60
2020/12/30 07:47:21;;;;;;;4.10;3.70;;;4.10;1.00;;;;;;5052462;28;20215;-63
2020/12/30 07:49:47;;;;;;;6.23;3.63;;;4.20;1.00;;;;;;5052735;28;20452;-63
2020/12/30 07:52:13;;;;;;;7.30;4.07;;;4.20;1.00;;;;;;5052965;28;20498;-68
2020/12/30 07:54:39;;;;;;;5.00;3.47;;;4.20;1.00;;;;;;5054119;28;20939;-68
2020/12/30 07:57:04;;;;;;;8.40;3.50;;;4.20;1.00;;;;;;5054239;28;20506;-61
2020/12/30 07:59:30;;;;;;;5.20;4.00;;;4.20;1.00;;;;;;5065083;28;20439;-60
2020/12/30 08:02:07;;;;;;;5.07;3.50;;;4.20;1.00;;;;;;5056343;28;20190;-70
2020/12/30 08:04:36;;;;;;;5.90;4.07;;;4.20;1.00;;;;;;5053665;28;20440;-61
2020/12/30 08:07:13;;;;;;;6.53;4.40;;;4.30;1.00;;;;;;5052743;28;20448;-68
2020/12/30 08:09:43;;;;;;;7.60;4.07;;;4.30;1.00;;;;;;5054214;28;20545;-60
2020/12/30 08:12:11;;;;;;;5.87;3.97;;;4.30;1.00;;;;;;5052379;28;20433;-59
2020/12/30 08:14:39;;;;;;;4.90;4.23;;;4.30;1.00;;;;;;5052691;28;20733;-61
2020/12/30 08:17:07;;;;;;;6.37;3.50;;;4.30;1.00;;;;;;5056353;28;20961;-70
2020/12/30 08:19:43;;;;;;;4.83;3.73;;;4.30;1.00;;;;;;5053012;28;20462;-70
2020/12/30 08:22:16;;;;;;;4.87;4.33;;;4.30;1.00;;;;;;5053080;28;20492;-71
2020/12/30 08:24:42;;;;;;;6.43;4.10;;;4.20;1.00;;;;;;5054117;28;20419;-70
2020/12/30 08:27:10;;;;;;;7.50;4.37;;;4.20;1.00;;;;;;5054147;28;20736;-60
2020/12/30 08:29:37;;;;;;;4.10;3.80;;;4.20;1.00;;;;;;5054272;28;20924;-60
2020/12/30 08:32:15;;;;;;;5.23;4.20;;;4.30;1.00;;;;;;5073252;28;20771;-68
2020/12/30 08:34:47;;;;;;;7.70;4.37;;;4.40;1.00;;;;;;5073477;28;20441;-59
2020/12/30 08:37:20;;;;;;;6.20;4.20;;;6.30;1.00;;;;;;5056481;28;20421;-71
2020/12/30 08:39:51;;;;;;;4.37;3.97;;;4.50;1.00;;;;;;5057517;28;20413;-60
2020/12/30 08:42:43;;;;;;;6.23;4.40;;;4.50;1.00;;;;;;5056517;28;20422;-70
2020/12/30 08:45:12;;;;;;;5.57;3.80;;;4.60;1.00;;;;;;5057482;28;20499;-69
2020/12/30 08:47:39;;;;;;;6.93;4.33;;;4.70;1.00;;;;;;5056228;28;20958;-70
2020/12/30 08:50:08;;;;;;;4.43;3.53;;;4.70;1.00;;;;;;5057558;28;20553;-61
2020/12/30 08:52:41;;;;;;;7.43;4.10;;;4.80;1.00;;;;;;5057283;28;20445;-60
2020/12/30 08:55:08;;;;;;;5.73;4.47;;;4.60;1.00;;;;;;5056158;28;20430;-69
2020/12/30 08:57:33;;;;;;;7.33;3.93;;;4.60;1.00;;;;;;5057527;28;20425;-69
2020/12/30 09:00:21;;;;;;;7.43;4.30;;;4.60;1.00;;;;;;5057624;28;20918;-71
2020/12/30 09:02:48;;;;;;;5.83;3.73;;;4.60;1.00;;;;;;5057098;28;20402;-60
2020/12/30 09:05:33;;;;;;;6.43;4.13;;;4.50;1.00;;;;;;5056222;28;20433;-60
2020/12/30 09:08:18;;;;;;;5.30;4.37;;;4.50;1.00;;;;;;5055800;28;20512;-59
2020/12/30 09:10:44;;;;;;;5.40;4.00;;;4.40;1.00;;;;;;5056990;28;20410;-60
2020/12/30 09:13:12;;;;;;;6.97;4.70;;;4.40;1.00;;;;;;5056784;28;20424;-60
2020/12/30 09:15:38;;;;;;;4.30;3.80;;;4.30;1.00;;;;;;5039491;28;20490;-69
2020/12/30 09:18:04;;;;;;;9.30;4.67;;;4.30;1.00;;;;;;5058725;28;20948;-69
2020/12/30 09:20:33;;;;;;;6.50;4.60;;;4.40;1.00;;;;;;5055906;28;20427;-67
2020/12/30 09:23:03;;;;;;;7.00;4.83;;;4.40;1.00;;;;;;5060837;28;20442;-68
2020/12/30 09:25:31;;;;;;;6.63;5.17;;;4.50;1.00;;;;;;5055684;28;20423;-60
2020/12/30 09:27:57;;;;;;;7.10;5.37;;;4.50;1.00;;;;;;5056794;28;20784;-60
2020/12/30 09:30:26;;;;;;;6.43;5.13;;;4.50;1.00;;;;;;5056076;28;20438;-70
2020/12/30 09:32:55;;;;;;;6.87;4.67;;;4.50;1.00;;;;;;5056085;28;20513;-60
2020/12/30 09:35:29;;;;;;;8.80;5.20;;;4.50;1.00;;;;;;5056173;28;20432;-60
2020/12/30 09:37:59;;;;;;;8.93;5.70;;;4.50;1.00;;;;;;5055626;28;20435;-60
2020/12/30 09:40:26;;;;;;;8.77;6.43;;;4.60;1.00;;;;;;5055914;28;20419;-64
2020/12/30 09:42:53;;;;;;;6.97;4.93;;;4.70;1.00;;;;;;5074342;28;20454;-72
2020/12/30 09:45:20;;;;;;;6.63;4.37;;;4.90;1.00;;;;;;5076477;28;20475;-71
2020/12/30 09:47:47;;;;;;;12.00;6.17;;;4.90;1.00;;;;;;5059170;28;20525;-71
2020/12/30 09:50:15;;;;;;;5.67;4.80;;;5.10;1.00;;;;;;5056606;28;20458;-71
2020/12/30 09:52:42;;;;;;;7.43;4.80;;;5.10;1.00;;;;;;5056122;28;20411;-61
2020/12/30 09:55:09;;;;;;;7.10;5.40;;;5.10;1.00;;;;;;5054699;28;20506;-60
2020/12/30 09:57:36;;;;;;;8.87;6.00;;;5.10;1.00;;;;;;5055940;28;20767;-70
2020/12/30 10:00:04;;;;;;;13.73;5.87;;;5.20;1.00;;;;;;5054728;28;20434;-61
2020/12/30 10:02:30;;;;;;;11.23;5.60;;;5.30;1.00;;;;;;5055440;28;20429;-70
2020/12/30 10:04:55;;;;;;;9.93;5.40;;;5.30;1.00;;;;;;5056399;28;20430;-73
2020/12/30 10:07:21;;;;;;;7.37;5.17;;;5.30;1.00;;;;;;5054987;28;20903;-72
2020/12/30 10:09:47;;;;;;;9.73;5.87;;;5.40;1.00;;;;;;5057092;28;20191;-70
2020/12/30 10:12:13;;;;;;;9.47;5.37;;;5.30;1.00;;;;;;5055866;28;20168;-67
2020/12/30 10:14:38;;;;;;;6.97;4.63;;;5.40;1.00;;;;;;5057132;28;20172;-60
2020/12/30 10:17:08;;;;;;;9.83;4.93;;;5.60;1.00;;;;;;5055414;28;20176;-61
2020/12/30 10:19:34;;;;;;;10.10;5.80;;;5.60;1.00;;;;;;5055788;28;20180;-61
2020/12/30 10:21:59;;;;;;;7.40;5.30;;;5.70;1.00;;;;;;5037969;28;20737;-60
2020/12/30 10:24:25;;;;;;;7.60;5.43;;;5.90;1.00;;;;;;5047640;28;20457;-61
2020/12/30 10:26:50;;;;;;;6.97;4.93;;;6.00;1.00;;;;;;5050160;28;20187;-70
2020/12/30 10:29:16;;;;;;;5.80;4.97;;;6.20;1.00;;;;;;5062017;28;20196;-70
2020/12/30 10:31:42;;;;;;;8.27;5.17;;;6.20;1.00;;;;;;5029905;28;20173;-71
2020/12/30 10:34:07;;;;;;;7.73;5.23;;;6.30;1.00;;;;;;5030293;28;20189;-61
2020/12/30 10:36:33;;;;;;;8.90;5.50;;;6.30;1.00;;;;;;5029550;28;20177;-62
2020/12/30 10:39:02;;;;;;;9.23;5.50;;;6.30;1.00;;;;;;5031070;28;20181;-73
2020/12/30 10:41:29;;;;;;;8.00;5.70;;;6.50;1.00;;;;;;5035673;28;20201;-74
2020/12/30 10:43:55;;;;;;;7.87;5.30;;;6.60;1.00;;;;;;5036362;28;20936;-61
2020/12/30 10:46:21;;;;;;;9.80;5.47;;;6.60;1.00;;;;;;5035111;28;20467;-73
2020/12/30 10:48:47;;;;;;;8.37;5.20;;;6.80;1.00;;;;;;5034786;28;20227;-60
2020/12/30 10:51:17;;;;;;;8.27;4.80;;;6.80;1.00;;;;;;5037408;28;20430;-72
2020/12/30 10:53:44;;;;;;;9.10;4.50;;;6.80;1.00;;;;;;5034969;28;20423;-72
2020/12/30 10:56:10;;;;;;;7.23;5.47;;;6.70;1.00;;;;;;5035166;28;20509;-63
2020/12/30 10:58:37;;;;;;;9.47;5.90;;;6.80;1.00;;;;;;5033719;28;20927;-60
2020/12/30 11:01:13;;;;;;;10.70;5.70;;;6.90;1.00;;;;;;5033535;28;20442;-60
2020/12/30 11:03:39;;;;;;;9.07;5.13;;;7.00;1.00;;;;;;5034926;28;20919;-62
2020/12/30 11:06:06;;;;;;;8.63;4.70;;;7.10;1.00;;;;;;5034813;28;20418;-62
2020/12/30 11:08:32;;;;;;;9.40;5.33;;;7.20;1.00;;;;;;5034665;28;20483;-61
2020/12/30 11:10:59;;;;;;;6.30;4.73;;;7.20;1.00;;;;;;5034753;28;20753;-63
2020/12/30 11:13:26;;;;;;;7.43;5.43;;;7.30;1.00;;;;;;5034221;28;20434;-62
2020/12/30 11:15:52;;;;;;;9.97;5.90;;;7.20;1.00;;;;;;5033569;28;20435;-62
2020/12/30 11:18:18;;;;;;;9.97;5.03;;;7.20;1.00;;;;;;5033666;28;20830;-61
2020/12/30 11:20:44;;;;;;;9.53;5.40;;;7.20;1.00;;;;;;5033457;28;20510;-62
2020/12/30 11:23:11;;;;;;;5.50;4.30;;;7.00;1.00;;;;;;5034611;28;20748;-61
2020/12/30 11:25:37;;;;;;;6.80;5.10;;;7.10;1.00;;;;;;5033545;28;20491;-62
2020/12/30 11:28:04;;;;;;;8.23;5.13;;;7.30;1.00;;;;;;5034941;28;20474;-62
2020/12/30 11:30:30;;;;;;;9.10;5.83;;;7.40;1.00;;;;;;5034523;28;20423;-62
2020/12/30 11:32:56;;;;;;;6.60;5.37;;;7.40;1.00;;;;;;5030242;28;20440;-63
2020/12/30 11:35:22;;;;;;;9.80;5.67;;;7.50;1.00;;;;;;5033539;28;20431;-63
2020/12/30 11:37:48;;;;;;;9.90;5.57;;;7.50;1.00;;;;;;5035941;28;20510;-63
2020/12/30 11:40:14;;;;;;;7.20;5.10;;;7.70;1.00;;;;;;5036983;28;20427;-62
2020/12/30 11:42:40;;;;;;;10.13;5.53;;;7.80;1.00;;;;;;5034936;28;20252;-62
2020/12/30 11:45:07;;;;;;;6.60;5.13;;;7.80;1.00;;;;;;5034777;28;20169;-73
2020/12/30 11:47:33;;;;;;;8.17;4.83;;;7.80;1.00;;;;;;5034435;28;20459;-73
2020/12/30 11:49:59;;;;;;;11.07;5.80;;;7.70;1.00;;;;;;5033757;28;20439;-64
2020/12/30 11:52:24;;;;;;;8.27;5.30;;;7.70;1.00;;;;;;5037051;28;20431;-62
2020/12/30 11:54:50;;;;;;;13.87;6.70;;;7.70;1.00;;;;;;5054700;28;20183;-63
2020/12/30 11:57:15;;;;;;;9.50;5.90;;;7.70;1.00;;;;;;5043383;28;20181;-63
2020/12/30 11:59:41;;;;;;;10.20;5.03;;;7.90;1.00;;;;;;5034765;28;20194;-62
2020/12/30 12:02:07;;;;;;;8.10;5.20;;;8.00;1.00;;;;;;5046072;28;20592;-64
2020/12/30 12:04:32;;;;;;;7.83;5.27;;;8.00;1.00;;;;;;5055692;28;20183;-74
2020/12/30 12:06:59;;;;;;;5.90;4.47;;;8.00;1.00;;;;;;5047562;28;20185;-73
2020/12/30 12:09:25;;;;;;;11.00;5.53;;;8.00;1.00;;;;;;5039236;28;20238;-73
2020/12/30 12:11:51;;;;;;;10.53;6.00;;;8.00;1.00;;;;;;5038699;28;20926;-73
2020/12/30 12:14:17;;;;;;;7.67;5.43;;;8.10;1.00;;;;;;5038291;28;20443;-72
2020/12/30 12:16:50;;;;;;;9.63;6.40;;;8.10;1.00;;;;;;5037850;28;20526;-72
2020/12/30 12:19:15;;;;;;;8.20;5.30;;;8.20;1.00;;;;;;5039450;28;20239;-72
2020/12/30 12:21:41;;;;;;;10.80;6.50;;;8.10;1.00;;;;;;5048480;28;20442;-72
2020/12/30 12:24:07;;;;;;;8.93;5.90;;;8.20;1.00;;;;;;5037248;28;20220;-62
2020/12/30 12:26:32;;;;;;;6.93;5.30;;;8.20;1.00;;;;;;5037043;28;20177;-62
2020/12/30 12:29:00;;;;;;;8.77;5.30;;;8.20;1.00;;;;;;5037040;28;20204;-71
2020/12/30 12:31:26;;;;;;;6.50;5.73;;;8.20;1.00;;;;;;5038963;28;20311;-72
2020/12/30 12:33:52;;;;;;;6.90;5.80;;;8.30;1.00;;;;;;5040707;28;20480;-71
2020/12/30 12:36:19;;;;;;;8.07;4.73;;;8.30;1.00;;;;;;5039530;28;20423;-62
2020/12/30 12:38:46;;;;;;;7.83;5.10;;;8.30;1.00;;;;;;5037107;28;20453;-61
2020/12/30 12:41:16;;;;;;;8.57;5.40;;;8.20;1.00;;;;;;5037879;28;20800;-62
2020/12/30 12:43:41;;;;;;;7.20;5.30;;;8.20;1.00;;;;;;5036690;28;20438;-62
2020/12/30 12:46:17;;;;;;;6.00;4.37;;;8.30;1.00;;;;;;5037658;28;20431;-62
2020/12/30 12:48:42;;;;;;;10.70;6.70;;;8.30;1.00;;;;;;5037456;28;20231;-64
2020/12/30 12:51:09;;;;;;;9.37;5.87;;;8.40;1.00;;;;;;5045639;28;20453;-62
2020/12/30 12:53:35;;;;;;;12.20;6.00;;;8.40;1.00;;;;;;5036549;28;20182;-62
2020/12/30 12:56:00;;;;;;;7.50;5.27;;;8.40;1.00;;;;;;5037361;28;20426;-71
2020/12/30 12:58:28;;;;;;;4.90;4.37;;;8.50;1.00;;;;;;5036751;28;20177;-72
2020/12/30 13:00:54;;;;;;;8.33;4.30;;;8.50;1.00;;;;;;5038635;28;20203;-71
2020/12/30 13:03:19;;;;;;;6.50;4.47;;;8.50;1.00;;;;;;5039324;28;20889;-61
2020/12/30 13:05:45;;;;;;;8.50;5.10;;;8.70;1.00;;;;;;5037560;28;20189;-66
2020/12/30 13:08:11;;;;;;;5.87;4.73;;;8.70;1.00;;;;;;5037045;28;20307;-68
2020/12/30 13:10:37;;;;;;;7.60;5.43;;;8.70;1.00;;;;;;5037753;28;20649;-62